Time;durP1;ratioP1;P1;durP2;ratioP2;P2;SDS_P1;SDS_P2;PMS_P1;PMS_P2;Temp;Humidity;BMP_temperature;BMP_pressure;BME280_temperature;BME280_humidity;BME280_pressure;Samples;Min_cycle;Max_cycle;Signal;HPM_P1;HPM_P2
2022/01/14 00:02:07;;;;;;;97.28;48.22;;;89.80;2176.00;;;;;;5031684;28;20033;-58
2022/01/14 00:04:33;;;;;;;70.18;36.78;;;89.80;2176.00;;;;;;5034151;28;20042;-57
2022/01/14 00:06:59;;;;;;;112.70;54.10;;;89.80;2176.00;;;;;;5031643;28;20048;-58
2022/01/14 00:09:24;;;;;;;145.70;63.70;;;89.90;2176.00;;;;;;5050425;28;20379;-58
2022/01/14 00:11:55;;;;;;;137.60;64.50;;;90.00;2176.00;;;;;;5051325;28;20029;-58
2022/01/14 00:17:09;;;;;;;95.18;42.78;;;90.00;2176.00;;;;;;5051350;28;20031;-58
2022/01/14 00:19:35;;;;;;;67.32;32.83;;;89.90;2176.00;;;;;;5051384;28;20029;-58
2022/01/14 00:22:10;;;;;;;141.07;66.37;;;90.10;2176.00;;;;;;5050540;28;20029;-57
2022/01/14 00:33:09;;;;;;;84.90;38.67;;;115.20;2176.00;;;;;;5051263;28;20069;-58
2022/01/14 00:35:42;;;;;;;109.47;45.25;;;90.50;2176.00;;;;;;5051029;28;20533;-58
2022/01/14 00:38:09;;;;;;;158.45;79.95;;;90.20;2176.00;;;;;;5051135;28;20013;-58
2022/01/14 00:40:35;;;;;;;134.25;67.28;;;90.30;2176.00;;;;;;5050863;28;20122;-58
2022/01/14 00:43:01;;;;;;;124.95;55.10;;;90.20;2176.00;;;;;;5050778;28;20050;-57
2022/01/14 00:45:27;;;;;;;153.80;70.95;;;90.20;2176.00;;;;;;5051162;28;20110;-58
2022/01/14 00:47:53;;;;;;;115.70;55.42;;;90.00;2176.00;;;;;;5051011;28;20021;-57
2022/01/14 00:50:20;;;;;;;85.65;43.15;;;90.00;2176.00;;;;;;5050697;28;20383;-58
2022/01/14 00:52:46;;;;;;;51.42;27.23;;;90.10;2176.00;;;;;;5049732;28;20406;-58
2022/01/14 00:55:16;;;;;;;41.83;22.57;;;90.20;2176.00;;;;;;5050710;28;20029;-58
2022/01/14 01:00:32;;;;;;;54.27;25.10;;;90.00;2176.00;;;;;;5050700;28;20394;-58
2022/01/14 01:02:58;;;;;;;510.15;220.70;;;89.80;2176.00;;;;;;5050452;28;20541;-58
2022/01/14 01:05:24;;;;;;;371.05;146.45;;;89.80;2176.00;;;;;;5050578;28;20033;-58
2022/01/14 01:10:25;;;;;;;46.05;25.33;;;64.80;2201.60;;;;;;5050494;28;20043;-59
2022/01/14 01:13:00;;;;;;;93.67;43.50;;;89.70;2176.00;;;;;;5050316;28;20029;-57
2022/01/14 01:15:26;;;;;;;52.45;27.50;;;64.90;2201.60;;;;;;5050360;28;20493;-58
2022/01/14 01:17:51;;;;;;;41.95;21.27;;;64.80;2201.60;;;;;;5050095;28;20025;-59
2022/01/14 01:20:21;;;;;;;31.38;18.17;;;64.70;2201.60;;;;;;5050011;28;20061;-56
2022/01/14 01:22:50;;;;;;;48.30;24.83;;;64.80;2201.60;;;;;;5050394;28;20032;-57
2022/01/14 01:25:20;;;;;;;57.53;29.55;;;64.70;2201.60;;;;;;5050118;28;20060;-59
2022/01/14 01:27:48;;;;;;;155.43;73.70;;;64.40;2201.60;;;;;;5050684;28;20801;-60
2022/01/14 01:33:02;;;;;;;48.65;21.55;;;64.00;2201.60;;;;;;5057501;28;20128;-56
2022/01/14 01:35:29;;;;;;;40.72;24.15;;;39.20;2201.60;;;;;;5057018;28;20079;-59
2022/01/14 01:37:55;;;;;;;38.72;23.13;;;64.00;2201.60;;;;;;5056925;28;20033;-57
2022/01/14 01:40:22;;;;;;;38.90;21.40;;;64.10;2201.60;;;;;;5058254;28;20461;-60
2022/01/14 01:42:50;;;;;;;24.92;13.52;;;64.00;2201.60;;;;;;5056946;28;20104;-59
2022/01/14 01:45:22;;;;;;;32.88;17.95;;;39.30;2201.60;;;;;;5056719;28;20083;-56
2022/01/14 01:47:52;;;;;;;34.08;19.90;;;39.00;2201.60;;;;;;5055642;28;20352;-57
2022/01/14 01:50:27;;;;;;;23.65;13.82;;;39.10;2201.60;;;;;;5058026;28;20036;-58
2022/01/14 01:52:54;;;;;;;37.92;19.58;;;39.20;2201.60;;;;;;5058296;28;20021;-57
2022/01/14 01:55:21;;;;;;;23.13;12.20;;;39.30;2201.60;;;;;;5061215;28;20024;-57
2022/01/14 01:57:48;;;;;;;26.30;14.82;;;39.30;2201.60;;;;;;5067792;28;20483;-57
2022/01/14 02:00:18;;;;;;;70.10;37.58;;;39.20;2201.60;;;;;;5067422;28;20036;-59
2022/01/14 02:02:48;;;;;;;124.47;60.67;;;64.10;2201.60;;;;;;5067635;28;20159;-58
2022/01/14 02:05:14;;;;;;;40.47;22.48;;;64.00;2201.60;;;;;;5067680;28;20210;-59
2022/01/14 02:07:40;;;;;;;44.65;21.83;;;64.10;2201.60;;;;;;5067433;28;20044;-56
2022/01/14 02:10:07;;;;;;;33.10;19.13;;;64.00;2201.60;;;;;;5048498;28;20407;-57
2022/01/14 02:12:39;;;;;;;32.95;16.90;;;64.00;2201.60;;;;;;5029759;28;20032;-58
2022/01/14 02:15:11;;;;;;;27.33;16.02;;;39.10;2201.60;;;;;;5029669;28;20033;-57
2022/01/14 02:18:03;;;;;;;31.55;16.63;;;38.90;2201.60;;;;;;5029849;28;20021;-57
2022/01/14 02:23:07;;;;;;;50.08;27.13;;;38.70;2201.60;;;;;;5030025;28;20039;-59
2022/01/14 02:25:34;;;;;;;88.47;41.47;;;38.80;2201.60;;;;;;5029734;28;20059;-58
2022/01/14 02:28:05;;;;;;;128.48;53.60;;;38.90;2201.60;;;;;;5029755;28;20053;-58
2022/01/14 02:30:33;;;;;;;77.35;37.58;;;38.90;2201.60;;;;;;5029639;28;20108;-58
2022/01/14 02:32:59;;;;;;;36.63;17.13;;;38.80;2201.60;;;;;;5029785;28;20052;-57
2022/01/14 02:35:25;;;;;;;37.20;19.52;;;38.70;2201.60;;;;;;5029513;28;20034;-59
2022/01/14 02:37:51;;;;;;;43.38;21.95;;;39.00;2201.60;;;;;;5029494;28;20084;-58
2022/01/14 02:40:19;;;;;;;68.72;32.50;;;39.20;2201.60;;;;;;5029819;28;20038;-57
2022/01/14 02:42:47;;;;;;;71.70;33.92;;;39.00;2201.60;;;;;;5029562;28;20021;-59
2022/01/14 02:45:13;;;;;;;35.47;16.20;;;38.80;2201.60;;;;;;5031486;28;20064;-57
2022/01/14 02:47:39;;;;;;;31.98;14.77;;;38.40;2201.60;;;;;;5033190;28;20044;-57
2022/01/14 02:50:13;;;;;;;91.30;43.85;;;38.40;2201.60;;;;;;5032923;28;20614;-59
2022/01/14 02:55:19;;;;;;;34.90;14.25;;;38.50;2201.60;;;;;;5033164;28;20160;-58
2022/01/14 02:57:47;;;;;;;147.27;65.80;;;38.40;2201.60;;;;;;5032834;28;20017;-58
2022/01/14 03:00:14;;;;;;;29.60;11.90;;;13.60;2201.60;;;;;;5032694;28;20076;-58
2022/01/14 03:02:48;;;;;;;17.35;8.07;;;13.40;2201.60;;;;;;5033127;28;20472;-58
2022/01/14 03:05:16;;;;;;;40.80;20.45;;;13.30;2201.60;;;;;;5032717;28;20029;-59
2022/01/14 03:07:42;;;;;;;34.25;19.02;;;13.00;2201.60;;;;;;5032640;28;20049;-58
2022/01/14 03:10:11;;;;;;;38.75;18.83;;;13.00;2201.60;;;;;;5033019;28;20052;-58
2022/01/14 03:12:40;;;;;;;19.60;10.07;;;0.00;2201.60;;;;;;5032692;28;20048;-58
2022/01/14 03:15:08;;;;;;;27.25;14.23;;;12.90;2201.60;;;;;;5032665;28;20037;-58
2022/01/14 03:17:33;;;;;;;127.93;57.85;;;12.90;2201.60;;;;;;5032426;28;20030;-59
2022/01/14 03:20:01;;;;;;;120.97;53.00;;;12.90;2201.60;;;;;;5032488;28;20542;-58
2022/01/14 03:22:33;;;;;;;34.35;17.45;;;0.00;2201.60;;;;;;5032462;28;20402;-57
2022/01/14 03:27:43;;;;;;;151.02;81.25;;;13.00;2201.60;;;;;;5032703;28;20040;-57
2022/01/14 03:30:09;;;;;;;132.15;69.03;;;13.00;2201.60;;;;;;5032282;28;20029;-57
2022/01/14 03:32:34;;;;;;;91.00;38.97;;;13.00;2201.60;;;;;;5032134;28;20034;-57
2022/01/14 03:35:00;;;;;;;70.13;36.50;;;0.00;2201.60;;;;;;5032268;28;20033;-58
2022/01/14 03:37:26;;;;;;;98.20;40.78;;;12.90;2201.60;;;;;;5032445;28;20029;-57
2022/01/14 03:39:52;;;;;;;119.20;53.08;;;0.00;2201.60;;;;;;5032198;28;20033;-59
2022/01/14 03:42:18;;;;;;;50.97;26.95;;;0.00;2201.60;;;;;;5032273;28;20471;-58
2022/01/14 03:44:43;;;;;;;54.25;28.75;;;12.90;2201.60;;;;;;5032109;28;20079;-57
2022/01/14 03:47:09;;;;;;;82.93;45.67;;;13.00;2201.60;;;;;;5032109;28;20108;-57
2022/01/14 03:49:35;;;;;;;84.05;44.55;;;13.10;2201.60;;;;;;5031964;28;20029;-58
2022/01/14 03:52:00;;;;;;;75.95;39.80;;;13.20;2201.60;;;;;;5032188;28;20090;-57
2022/01/14 03:54:26;;;;;;;76.75;40.08;;;13.20;2201.60;;;;;;5032162;28;20029;-58
2022/01/14 03:56:52;;;;;;;112.57;62.03;;;12.90;2201.60;;;;;;5030935;28;20491;-58
2022/01/14 03:59:18;;;;;;;200.52;97.72;;;0.00;2201.60;;;;;;5031899;28;20533;-57
2022/01/14 04:01:43;;;;;;;267.65;135.32;;;0.10;2201.60;;;;;;5031348;28;20048;-58
2022/01/14 04:04:09;;;;;;;110.35;56.08;;;0.10;2201.60;;;;;;5031847;28;20545;-58
2022/01/14 04:06:35;;;;;;;59.28;30.13;;;0.40;2201.60;;;;;;5031477;28;20111;-59
2022/01/14 04:09:00;;;;;;;93.28;52.35;;;0.60;2201.60;;;;;;5031516;28;20486;-59
2022/01/14 04:11:26;;;;;;;93.65;49.22;;;0.40;2201.60;;;;;;5031852;28;20037;-57
2022/01/14 04:13:55;;;;;;;99.32;53.88;;;0.20;2201.60;;;;;;5031558;28;20030;-58
2022/01/14 04:16:23;;;;;;;127.70;71.63;;;12.90;2201.60;;;;;;5029948;28;20486;-58
2022/01/14 04:18:50;;;;;;;152.38;85.60;;;13.00;2201.60;;;;;;5031455;28;20459;-59
2022/01/14 04:21:17;;;;;;;104.93;58.42;;;13.50;2201.60;;;;;;5031319;28;20049;-57
2022/01/14 04:23:43;;;;;;;456.38;215.95;;;12.90;2201.60;;;;;;5031250;28;20033;-57
2022/01/14 04:26:10;;;;;;;129.52;72.85;;;0.00;2201.60;;;;;;5031434;28;20468;-58
2022/01/14 04:28:36;;;;;;;188.85;104.80;;;13.20;2201.60;;;;;;5031371;28;20438;-57
2022/01/14 04:31:07;;;;;;;124.80;70.93;;;13.00;2201.60;;;;;;5030868;28;20037;-57
2022/01/14 04:33:34;;;;;;;137.60;81.63;;;13.10;2201.60;;;;;;5031243;28;20030;-57
2022/01/14 04:36:00;;;;;;;126.75;76.38;;;38.50;2201.60;;;;;;5030037;28;20065;-57
2022/01/14 04:38:28;;;;;;;135.32;79.72;;;38.80;2201.60;;;;;;5031304;28;20399;-57
2022/01/14 04:40:54;;;;;;;140.68;72.88;;;39.00;2201.60;;;;;;5031059;28;20037;-57
2022/01/14 04:43:21;;;;;;;149.07;85.30;;;39.10;2201.60;;;;;;5031535;28;20113;-57
2022/01/14 04:48:26;;;;;;;359.10;177.30;;;39.10;2201.60;;;;;;5030829;28;20063;-57
2022/01/14 04:50:53;;;;;;;168.32;92.20;;;38.90;2201.60;;;;;;5030934;28;20029;-58
2022/01/14 04:53:20;;;;;;;167.05;93.80;;;38.80;2201.60;;;;;;5030869;28;20490;-57
2022/01/14 04:55:47;;;;;;;152.05;80.90;;;38.70;2201.60;;;;;;5041110;28;20047;-57
2022/01/14 04:58:13;;;;;;;156.77;84.88;;;38.70;2201.60;;;;;;5050464;28;20029;-57
2022/01/14 05:00:39;;;;;;;203.93;108.13;;;38.80;2201.60;;;;;;5050335;28;20037;-59
2022/01/14 05:03:06;;;;;;;121.30;66.95;;;38.70;2201.60;;;;;;5050700;28;20422;-59
2022/01/14 05:05:35;;;;;;;96.10;51.75;;;39.00;2201.60;;;;;;5050594;28;20078;-59
2022/01/14 05:08:01;;;;;;;102.47;55.95;;;39.00;2201.60;;;;;;5050067;28;20049;-58
2022/01/14 05:12:53;;;;;;;112.95;60.35;;;39.10;2201.60;;;;;;5050422;28;20152;-60
2022/01/14 05:15:19;;;;;;;106.43;60.95;;;39.10;2201.60;;;;;;5050373;28;20028;-59
2022/01/14 05:17:46;;;;;;;112.15;65.47;;;39.00;2201.60;;;;;;5050150;28;20036;-56
2022/01/14 05:20:14;;;;;;;137.27;77.00;;;38.80;2201.60;;;;;;5049914;28;20040;-57
2022/01/14 05:22:40;;;;;;;126.32;67.47;;;38.80;2201.60;;;;;;5044369;28;20396;-55
2022/01/14 05:25:07;;;;;;;183.30;103.90;;;38.80;2201.60;;;;;;5039697;28;20017;-58
2022/01/14 05:27:34;;;;;;;211.10;113.10;;;38.80;2201.60;;;;;;5044083;28;20029;-59
2022/01/14 05:30:01;;;;;;;191.73;107.65;;;38.90;2201.60;;;;;;5049887;28;20128;-57
2022/01/14 05:32:28;;;;;;;211.07;118.40;;;38.90;2201.60;;;;;;5050225;28;20083;-57
2022/01/14 05:34:53;;;;;;;225.45;125.55;;;38.90;2201.60;;;;;;5050045;28;20033;-60
2022/01/14 05:37:19;;;;;;;204.52;115.80;;;38.90;2201.60;;;;;;5050232;28;20025;-59
2022/01/14 05:39:45;;;;;;;238.90;140.02;;;38.90;2201.60;;;;;;5049835;28;20559;-59
2022/01/14 05:42:11;;;;;;;175.63;98.78;;;39.00;2201.60;;;;;;5050096;28;20040;-57
2022/01/14 05:44:38;;;;;;;179.95;103.20;;;38.80;2201.60;;;;;;5050012;28;20095;-59
2022/01/14 05:47:04;;;;;;;188.73;103.00;;;38.80;2201.60;;;;;;5049783;28;20442;-58
2022/01/14 05:49:30;;;;;;;180.32;99.85;;;38.90;2201.60;;;;;;5044727;28;20475;-58
2022/01/14 05:51:56;;;;;;;163.13;96.05;;;38.90;2201.60;;;;;;5030184;28;20032;-58
2022/01/14 05:54:22;;;;;;;152.18;90.93;;;38.80;2201.60;;;;;;5029774;28;20025;-60
2022/01/14 05:56:49;;;;;;;180.50;98.93;;;38.90;2201.60;;;;;;5030076;28;20033;-57
2022/01/14 05:59:15;;;;;;;127.00;71.28;;;38.90;2201.60;;;;;;5029714;28;20025;-58
2022/01/14 06:01:41;;;;;;;126.38;72.03;;;38.90;2201.60;;;;;;5029404;28;20064;-58
2022/01/14 06:04:07;;;;;;;156.70;84.70;;;38.80;2201.60;;;;;;5030293;28;20376;-57
2022/01/14 06:06:34;;;;;;;167.32;88.90;;;38.80;2201.60;;;;;;5029619;28;20029;-58
2022/01/14 06:09:01;;;;;;;150.02;86.93;;;38.80;2201.60;;;;;;5029923;28;20033;-60
2022/01/14 06:11:27;;;;;;;150.38;95.57;;;38.90;2201.60;;;;;;5029755;28;20057;-59
2022/01/14 06:13:53;;;;;;;142.00;89.53;;;38.90;2201.60;;;;;;5029762;28;20061;-60
2022/01/14 06:16:19;;;;;;;148.55;86.63;;;38.80;2201.60;;;;;;5029869;28;20447;-59
2022/01/14 06:18:47;;;;;;;166.40;95.72;;;38.70;2201.60;;;;;;5030015;28;20399;-58
2022/01/14 06:21:13;;;;;;;164.40;94.25;;;38.80;2201.60;;;;;;5033221;28;20041;-63
2022/01/14 06:23:39;;;;;;;198.85;114.13;;;38.90;2201.60;;;;;;5033570;28;20108;-61
2022/01/14 06:26:05;;;;;;;282.05;175.85;;;38.80;2201.60;;;;;;5033437;28;20105;-58
2022/01/14 06:28:30;;;;;;;190.73;112.45;;;38.80;2201.60;;;;;;5033479;28;20026;-59
2022/01/14 06:30:56;;;;;;;178.38;105.72;;;38.70;2201.60;;;;;;5033419;28;20037;-60
2022/01/14 06:33:22;;;;;;;149.82;90.53;;;38.70;2201.60;;;;;;5033329;28;20100;-61
2022/01/14 06:35:49;;;;;;;141.38;82.35;;;38.50;2201.60;;;;;;5033413;28;20033;-58
2022/01/14 06:38:16;;;;;;;145.90;88.15;;;38.40;2201.60;;;;;;5033141;28;20026;-60
2022/01/14 06:40:42;;;;;;;151.98;86.22;;;13.70;2201.60;;;;;;5033051;28;20065;-59
2022/01/14 06:43:08;;;;;;;166.60;99.07;;;13.70;2201.60;;;;;;5033423;28;20067;-60
2022/01/14 06:45:33;;;;;;;163.10;101.47;;;13.70;2201.60;;;;;;5033049;28;20533;-59
2022/01/14 06:47:59;;;;;;;181.02;112.63;;;13.60;2201.60;;;;;;5033509;28;20048;-60
2022/01/14 06:50:26;;;;;;;140.90;90.43;;;13.50;2201.60;;;;;;5038406;28;20074;-59
2022/01/14 06:52:52;;;;;;;219.90;142.77;;;13.30;2201.60;;;;;;5041741;28;20060;-59
2022/01/14 06:55:17;;;;;;;270.33;174.50;;;13.30;2201.60;;;;;;5042530;28;20068;-59
2022/01/14 06:57:43;;;;;;;247.77;162.13;;;13.30;2201.60;;;;;;5039876;28;20033;-59
2022/01/14 07:00:12;;;;;;;249.82;156.88;;;13.30;2201.60;;;;;;5034368;28;20087;-59
2022/01/14 07:02:39;;;;;;;199.23;121.40;;;13.20;2201.60;;;;;;5040669;28;20040;-59
2022/01/14 07:05:06;;;;;;;202.23;119.90;;;13.20;2201.60;;;;;;5033426;28;20133;-59
2022/01/14 07:07:32;;;;;;;236.35;143.77;;;13.10;2201.60;;;;;;5032594;28;20048;-59
2022/01/14 07:09:58;;;;;;;209.95;131.52;;;12.90;2201.60;;;;;;5032733;28;20025;-59
2022/01/14 07:12:25;;;;;;;146.27;88.97;;;0.00;2201.60;;;;;;5032804;28;20036;-61
2022/01/14 07:14:52;;;;;;;108.93;67.70;;;0.10;2201.60;;;;;;5032477;28;20021;-59
2022/01/14 07:17:18;;;;;;;111.28;68.78;;;0.20;2201.60;;;;;;5032632;28;20060;-59
2022/01/14 07:19:46;;;;;;;106.22;63.63;;;0.40;2201.60;;;;;;5032405;28;20049;-59
2022/01/14 07:22:11;;;;;;;77.97;50.63;;;0.50;2201.60;;;;;;5032261;28;20029;-60
2022/01/14 07:24:37;;;;;;;135.20;77.38;;;0.60;2201.60;;;;;;5032443;28;20133;-59
2022/01/14 07:27:03;;;;;;;173.18;98.82;;;0.70;2201.60;;;;;;5032244;28;20034;-59
2022/01/14 07:29:29;;;;;;;106.07;68.95;;;0.70;2201.60;;;;;;5032440;28;20025;-59
2022/01/14 07:31:55;;;;;;;77.30;51.58;;;0.90;2201.60;;;;;;5030915;28;20480;-59
2022/01/14 07:34:20;;;;;;;72.57;42.70;;;25.80;2201.60;;;;;;5032475;28;20124;-59
2022/01/14 07:36:46;;;;;;;45.95;28.33;;;25.90;2201.60;;;;;;5032085;28;20589;-59
2022/01/14 07:39:12;;;;;;;44.28;30.98;;;26.00;2201.60;;;;;;5032055;28;20030;-59
2022/01/14 07:41:40;;;;;;;51.63;33.97;;;26.10;2201.60;;;;;;5032346;28;20041;-59
2022/01/14 07:44:06;;;;;;;67.28;41.70;;;26.20;2201.60;;;;;;5032455;28;20029;-59
2022/01/14 07:46:32;;;;;;;64.68;43.63;;;26.30;2201.60;;;;;;5032078;28;20387;-59
2022/01/14 07:48:58;;;;;;;218.00;129.55;;;26.40;2201.60;;;;;;5032425;28;20368;-59
2022/01/14 07:51:24;;;;;;;389.60;207.75;;;26.50;2201.60;;;;;;5031939;28;20033;-59
2022/01/14 07:53:49;;;;;;;249.85;145.30;;;51.30;2227.20;;;;;;5031960;28;20026;-60
2022/01/14 07:56:15;;;;;;;266.67;152.02;;;51.30;2227.20;;;;;;5031873;28;20159;-58
2022/01/14 07:58:41;;;;;;;139.27;78.75;;;51.40;2227.20;;;;;;5031830;28;20022;-59
2022/01/14 08:01:08;;;;;;;116.60;71.13;;;51.60;2227.20;;;;;;5031724;28;20036;-60
2022/01/14 08:03:34;;;;;;;93.20;57.95;;;51.70;2227.20;;;;;;5031591;28;20553;-60
2022/01/14 08:06:01;;;;;;;71.82;39.90;;;51.80;2227.20;;;;;;5031859;28;20388;-60
2022/01/14 08:08:28;;;;;;;83.28;46.50;;;51.90;2227.20;;;;;;5031589;28;20053;-59
2022/01/14 08:10:55;;;;;;;44.67;25.77;;;52.10;2227.20;;;;;;5031554;28;20033;-58
2022/01/14 08:13:20;;;;;;;40.95;24.45;;;76.90;2227.20;;;;;;5031732;28;20021;-59
2022/01/14 08:15:46;;;;;;;37.42;22.75;;;77.10;2227.20;;;;;;5031530;28;20134;-59
2022/01/14 08:18:12;;;;;;;34.67;23.92;;;77.30;2227.20;;;;;;5031433;28;20029;-59
2022/01/14 08:20:38;;;;;;;43.55;33.00;;;102.60;2227.20;;;;;;5031363;28;20038;-59
2022/01/14 08:23:04;;;;;;;70.50;46.65;;;128.50;2252.80;;;;;;5031219;28;20021;-58
2022/01/14 08:25:29;;;;;;;78.10;52.22;;;154.40;2252.80;;;;;;5031390;28;20117;-59
2022/01/14 08:27:55;;;;;;;100.10;76.53;;;180.10;2252.80;;;;;;5031269;28;20067;-59
2022/01/14 08:30:21;;;;;;;77.35;58.25;;;205.50;2252.80;;;;;;5030891;28;20029;-59
2022/01/14 08:32:47;;;;;;;135.13;102.15;;;231.10;2150.40;;;;;;5031189;28;20036;-59
2022/01/14 08:35:13;;;;;;;244.23;189.05;;;256.50;2022.40;;;;;;5031188;28;20027;-59
2022/01/14 08:37:39;;;;;;;265.08;199.77;;;281.60;1920.00;;;;;;5031083;28;20040;-59
2022/01/14 08:40:07;;;;;;;578.92;396.90;;;282.40;1843.20;;;;;;5030719;28;20163;-58
2022/01/14 08:42:33;;;;;;;308.05;223.40;;;307.20;1817.60;;;;;;5028944;28;20407;-60
2022/01/14 08:44:59;;;;;;;249.50;194.77;;;282.30;1792.00;;;;;;5029423;28;20032;-59
2022/01/14 08:47:25;;;;;;;335.42;263.67;;;256.90;1817.60;;;;;;5029202;28;20025;-59
2022/01/14 08:49:51;;;;;;;148.15;109.00;;;230.90;1996.80;;;;;;5029711;28;20096;-59
2022/01/14 08:52:17;;;;;;;285.38;214.15;;;205.50;2176.00;;;;;;5029227;28;20030;-59
2022/01/14 08:54:43;;;;;;;299.27;226.57;;;205.60;2252.80;;;;;;5029004;28;20364;-59
2022/01/14 08:57:09;;;;;;;301.08;237.85;;;231.10;2073.60;;;;;;5028849;28;20109;-59
2022/01/14 08:59:38;;;;;;;167.70;129.07;;;256.60;1920.00;;;;;;5029049;28;20069;-59
2022/01/14 09:02:07;;;;;;;138.55;104.38;;;307.20;1843.20;;;;;;5028777;28;20117;-60
2022/01/14 09:04:34;;;;;;;98.70;81.47;;;308.00;1766.40;;;;;;5028988;28;20108;-59
2022/01/14 09:07:01;;;;;;;51.70;42.55;;;307.90;1740.80;;;;;;5028957;28;20045;-60
2022/01/14 09:09:26;;;;;;;56.25;45.15;;;333.70;1689.60;;;;;;5028537;28;20037;-63
2022/01/14 09:11:54;;;;;;;34.88;29.30;;;333.50;1664.00;;;;;;5028791;28;20025;-63
2022/01/14 09:14:21;;;;;;;42.35;33.38;;;384.40;1510.40;;;;;;5028921;28;20032;-63
2022/01/14 09:16:47;;;;;;;36.33;32.13;;;410.50;1459.20;;;;;;5028950;28;20683;-63
2022/01/14 09:19:14;;;;;;;88.05;78.90;;;436.10;1356.80;;;;;;5028684;28;20056;-63
2022/01/14 09:21:42;;;;;;;106.13;94.57;;;461.00;1356.80;;;;;;5028371;28;20499;-63
2022/01/14 09:24:08;;;;;;;90.57;78.75;;;460.80;1356.80;;;;;;5028719;28;20030;-63
2022/01/14 09:26:37;;;;;;;143.25;119.97;;;461.10;1331.20;;;;;;5028645;28;20033;-64
2022/01/14 09:29:04;;;;;;;153.05;135.48;;;486.60;1254.40;;;;;;5028531;28;20021;-64
2022/01/14 09:31:31;;;;;;;164.13;146.30;;;487.00;1254.40;;;;;;5028567;28;20029;-70
2022/01/14 09:33:57;;;;;;;162.27;144.93;;;512.00;1203.20;;;;;;5028833;28;20065;-65
2022/01/14 09:36:23;;;;;;;163.85;146.32;;;512.10;1177.60;;;;;;5028051;28;20025;-65
2022/01/14 09:38:49;;;;;;;157.55;137.23;;;512.20;1177.60;;;;;;5028582;28;20028;-64
2022/01/14 09:41:17;;;;;;;96.35;86.40;;;486.90;1228.80;;;;;;5028947;28;20029;-63
2022/01/14 09:43:44;;;;;;;62.03;55.58;;;487.10;1228.80;;;;;;5030472;28;20482;-63
2022/01/14 09:46:11;;;;;;;70.05;62.40;;;487.00;1228.80;;;;;;5030388;28;20372;-63
2022/01/14 09:48:38;;;;;;;32.45;26.88;;;461.30;1280.00;;;;;;5030256;28;20033;-63
2022/01/14 09:51:05;;;;;;;47.60;41.97;;;435.70;1331.20;;;;;;5030214;28;20049;-69
2022/01/14 09:53:32;;;;;;;75.05;54.33;;;410.30;1382.40;;;;;;5030251;28;20026;-63
2022/01/14 09:55:59;;;;;;;131.35;91.43;;;384.60;1433.60;;;;;;5033538;28;20392;-63
2022/01/14 09:58:27;;;;;;;77.57;54.28;;;359.00;1510.40;;;;;;5034204;28;20391;-63
2022/01/14 10:01:10;;;;;;;33.95;27.75;;;333.70;1587.20;;;;;;5033955;28;20049;-62
2022/01/14 10:03:47;;;;;;;;;;;332.90;1664.00;;;;;;5034387;28;20052;-63
2022/01/14 10:06:32;;;;;;;44.72;34.03;;;307.60;1715.20;;;;;;5033932;28;19951;-63
2022/01/14 10:09:11;;;;;;;34.33;25.20;;;307.40;1740.80;;;;;;5034022;28;20128;-62
2022/01/14 10:11:39;;;;;;;123.40;86.05;;;282.40;1766.40;;;;;;5034106;28;20061;-63
2022/01/14 10:14:20;;;;;;;70.65;48.72;;;282.30;1766.40;;;;;;5033718;28;20025;-62
2022/01/14 10:16:56;;;;;;;45.40;30.83;;;282.20;1792.00;;;;;;5033828;28;20025;-69
2022/01/14 10:19:28;;;;;;;41.72;30.75;;;282.20;1792.00;;;;;;5033757;28;20108;-64
2022/01/14 10:21:55;;;;;;;46.30;32.92;;;282.00;1817.60;;;;;;5033497;28;20037;-62
2022/01/14 10:24:29;;;;;;;24.42;17.70;;;282.00;1843.20;;;;;;5033612;28;20022;-65
2022/01/14 10:27:00;;;;;;;19.33;13.10;;;282.00;1843.20;;;;;;5033674;28;20022;-62
2022/01/14 10:29:33;;;;;;;27.92;18.83;;;281.90;1868.80;;;;;;5033571;28;20087;-62
2022/01/14 10:32:02;;;;;;;29.50;21.92;;;282.00;1868.80;;;;;;5033332;28;20057;-62
2022/01/14 10:34:28;;;;;;;37.80;24.45;;;282.00;1894.40;;;;;;5033295;28;20133;-62
2022/01/14 10:37:15;;;;;;;32.70;23.48;;;282.00;1894.40;;;;;;5033633;28;20029;-69
2022/01/14 10:39:49;;;;;;;18.63;14.60;;;281.80;1920.00;;;;;;5033376;28;20491;-62
2022/01/14 10:42:36;;;;;;;8.32;5.60;;;281.80;1945.60;;;;;;5033143;28;20116;-62
2022/01/14 10:45:22;;;;;;;27.02;16.25;;;281.70;1945.60;;;;;;5033245;28;20024;-63
2022/01/14 10:47:52;;;;;;;353.80;178.40;;;281.90;1945.60;;;;;;5033392;28;20025;-62
2022/01/14 10:50:18;;;;;;;130.27;62.22;;;281.90;1945.60;;;;;;5033312;28;20030;-62
2022/01/14 10:52:49;;;;;;;32.47;14.52;;;281.80;1971.20;;;;;;5033058;28;20025;-69
2022/01/14 10:55:34;;;;;;;29.90;16.60;;;281.80;1971.20;;;;;;5033010;28;20392;-63
2022/01/14 10:58:02;;;;;;;5.82;4.40;;;281.80;1971.20;;;;;;5033318;28;20021;-61
2022/01/14 11:00:28;;;;;;;4.82;3.88;;;281.70;1996.80;;;;;;5032864;28;20045;-66
2022/01/14 11:02:54;;;;;;;12.07;10.02;;;281.70;1971.20;;;;;;5033057;28;20042;-61
2022/01/14 11:05:21;;;;;;;6.97;5.90;;;281.80;1996.80;;;;;;5032702;28;20035;-61
2022/01/14 11:07:48;;;;;;;4.50;2.10;;;281.80;1996.80;;;;;;5033012;28;20395;-63
2022/01/14 11:10:28;;;;;;;4.32;2.38;;;281.80;1971.20;;;;;;5032616;28;20029;-61
2022/01/14 11:12:55;;;;;;;4.95;2.90;;;281.90;1971.20;;;;;;5032952;28;20057;-61
2022/01/14 11:15:23;;;;;;;4.03;2.40;;;281.90;1996.80;;;;;;5032741;28;20399;-64
2022/01/14 11:17:52;;;;;;;7.90;6.65;;;281.90;1996.80;;;;;;5032856;28;20438;-61
2022/01/14 11:23:14;;;;;;;5.00;2.40;;;281.90;1996.80;;;;;;5032393;28;20042;-62
2022/01/14 11:23:17;;;;;;;5.22;2.88;;;282.10;1996.80;;;;;;5032485;28;20538;-70
2022/01/14 11:26:11;;;;;;;11.00;5.93;;;282.10;1971.20;;;;;;5032242;28;20025;-61
2022/01/14 11:28:41;;;;;;;4.63;2.95;;;282.00;1971.20;;;;;;5030380;28;20387;-61
2022/01/14 11:31:28;;;;;;;3.95;1.92;;;282.20;1945.60;;;;;;5030062;28;20049;-61
2022/01/14 11:33:55;;;;;;;4.32;2.90;;;282.10;1971.20;;;;;;5030217;28;20115;-61
2022/01/14 11:36:22;;;;;;;5.40;2.92;;;282.10;1971.20;;;;;;5030261;28;20025;-62
2022/01/14 11:38:48;;;;;;;4.60;3.33;;;282.10;1945.60;;;;;;5030138;28;20037;-61
2022/01/14 11:41:20;;;;;;;8.55;5.55;;;282.10;1920.00;;;;;;5029718;28;20064;-61
2022/01/14 11:43:48;;;;;;;26.70;20.05;;;282.10;1945.60;;;;;;5029892;28;20030;-61
2022/01/14 11:46:30;;;;;;;13.52;9.88;;;282.00;1945.60;;;;;;5029997;28;20103;-66
2022/01/14 11:48:56;;;;;;;38.72;25.15;;;282.10;1920.00;;;;;;5029892;28;20637;-61
2022/01/14 11:51:22;;;;;;;14.05;10.30;;;282.10;1920.00;;;;;;5030077;28;20033;-62
2022/01/14 11:53:54;;;;;;;10.70;4.57;;;282.10;1920.00;;;;;;5029937;28;20103;-61
2022/01/14 11:56:47;;;;;;;74.68;42.75;;;282.10;1894.40;;;;;;5013264;28;20489;-61
2022/01/14 11:59:18;;;;;;;134.43;70.13;;;282.20;1894.40;;;;;;5027248;28;20034;-61
2022/01/14 12:01:55;;;;;;;68.13;37.20;;;282.20;1894.40;;;;;;5029244;28;20077;-61
2022/01/14 12:04:22;;;;;;;26.67;14.35;;;282.20;1894.40;;;;;;5029813;28;20060;-61
2022/01/14 12:06:51;;;;;;;15.93;12.30;;;282.30;1894.40;;;;;;5031543;28;20508;-61
2022/01/14 12:09:18;;;;;;;15.30;10.65;;;282.30;1868.80;;;;;;5031766;28;20029;-61
2022/01/14 12:11:44;;;;;;;5.18;3.10;;;282.30;1868.80;;;;;;5031565;28;20044;-62
2022/01/14 12:14:12;;;;;;;10.50;6.88;;;282.30;1868.80;;;;;;5031839;28;20029;-62
2022/01/14 12:16:48;;;;;;;16.65;14.10;;;282.40;1868.80;;;;;;5031208;28;20096;-61
2022/01/14 12:19:21;;;;;;;7.72;5.35;;;282.30;1843.20;;;;;;5031219;28;20028;-61
2022/01/14 12:21:48;;;;;;;16.23;11.73;;;282.30;1843.20;;;;;;5031415;28;20388;-61
2022/01/14 12:24:30;;;;;;;9.63;7.00;;;282.30;1843.20;;;;;;5031395;28;20041;-62
2022/01/14 12:27:03;;;;;;;25.25;22.65;;;282.30;1843.20;;;;;;5031265;28;20048;-61
2022/01/14 12:29:39;;;;;;;70.40;63.72;;;282.30;1843.20;;;;;;5031366;28;20075;-61
2022/01/14 12:32:04;;;;;;;7.57;4.38;;;282.30;1843.20;;;;;;5030820;28;20040;-62
2022/01/14 12:34:38;;;;;;;11.30;9.35;;;282.40;1843.20;;;;;;5031088;28;20029;-61
2022/01/14 12:37:04;;;;;;;;;;;282.40;1843.20;;;;;;5031397;28;20022;-61
2022/01/14 12:39:30;;;;;;;21.65;16.52;;;282.50;1843.20;;;;;;5031016;28;19906;-61